首页
METAR-TAF:

METAR-TAF

机场 :

马略卡岛帕尔马机场

帕爾馬, 西班牙

纬度: 39-33N, 经度: 002-44E, 海拔: 4米

当前天气观测

该预报发布于36分钟前的21:30 UTC
风速13节,风向西南
温度 17°C
湿度 63%
气压 1018 hPa
能见度10公里或以上
1500米以下无云,无积雨云

METAR: LEPA 272130Z 22013KT CAVOK 17/10 Q1018 NOSIG

时间: 23:06 (22:06 UTC)

预报

该预报发布于5小时和6分钟前的17:00 UTC
预报有效从27日的 18点(UTC)到 28日的 18点(UTC)
风速10节,风向西转西南
能见度10公里或以上
少量云层高于4000英尺
短暂存在
从 27日的 23点(UTC)到 28日的 01点(UTC)
风速4节,风向多变
成为
从 28日的 00点(UTC)到 28日的 02点(UTC)
风速10节,风向西北
成为
从 28日的 07点(UTC)到 28日的 09点(UTC)
风速9节,风向东转东北
成为
从 28日的 12点(UTC)到 28日的 14点(UTC)
风速10节,风向东南

TAF: LEPA 271700Z 2718/2818 24010KT 9999 FEW040 TX20/2813Z TN09/2806Z TEMPO 2723/2801 VRB04KT BECMG 2800/2802 32010KT BECMG 2807/2809 07009KT BECMG 2812/2814 13010KT

超过4000个机场的气象观测和天气预报(METAR&TAF报告)。

可查询的气象台以黄色和红色小点在地图上表示。

将鼠标移到小点上方,可查看气象台名称。

然后点击查看天气观测和预报。

如需切换地图:点击带黑十字的绿色按钮放大地图;点击带横线的绿色按钮缩小地图;或者点击绿色箭头查看邻近地区的地图。


METAR-TAF: